createdAt,value
2018-08-13T00:00:16.340Z,933.9
2018-08-13T00:01:16.285Z,933.8
2018-08-13T00:02:16.248Z,933.8
2018-08-13T00:03:16.177Z,933.3
2018-08-13T00:04:16.110Z,933.8
2018-08-13T00:05:16.476Z,933.7
2018-08-13T00:06:16.402Z,933.5
2018-08-13T00:07:19.372Z,933.6
2018-08-13T00:08:19.284Z,933.7
2018-08-13T00:09:19.438Z,933.5
2018-08-13T00:10:19.342Z,933.6
2018-08-13T00:11:19.238Z,933.6
2018-08-13T00:12:20.446Z,933.1
2018-08-13T00:13:20.375Z,933.6
2018-08-13T00:14:25.794Z,931.6
2018-08-13T00:15:29.185Z,933.5
2018-08-13T00:16:29.095Z,932.9
2018-08-13T00:17:29.728Z,933.5
2018-08-13T00:18:29.701Z,933.1
2018-08-13T00:19:32.452Z,933.5
2018-08-13T00:20:32.356Z,933.4
2018-08-13T00:21:32.491Z,933
2018-08-13T00:22:32.432Z,933.5
2018-08-13T00:23:32.568Z,933.4
2018-08-13T00:24:32.488Z,933.4
2018-08-13T00:25:33.846Z,933
2018-08-13T00:26:34.791Z,933.4
2018-08-13T00:27:34.769Z,933.2
2018-08-13T00:28:34.929Z,933.4
2018-08-13T00:29:40.709Z,933.1
2018-08-13T00:30:43.528Z,933.4
2018-08-13T00:31:46.341Z,933.3
2018-08-13T00:32:46.285Z,932.9
2018-08-13T00:33:46.230Z,933.3
2018-08-13T00:34:46.132Z,933.3
2018-08-13T00:35:49.214Z,933.3
2018-08-13T00:36:49.149Z,933.3
2018-08-13T00:37:49.306Z,933.3
2018-08-13T00:38:49.439Z,933.4
2018-08-13T00:39:49.341Z,933.4
2018-08-13T00:40:53.323Z,933.3
2018-08-13T00:41:53.226Z,932.7
2018-08-13T00:42:53.384Z,933.3
2018-08-13T00:43:53.295Z,933.3
2018-08-13T00:44:53.422Z,933.3
2018-08-13T00:45:56.786Z,933.4
2018-08-13T00:46:56.701Z,933.3
2018-08-13T00:47:56.851Z,933.3
2018-08-13T00:48:56.987Z,933.4
2018-08-13T00:49:56.904Z,933.3
2018-08-13T00:50:57.071Z,933.4
2018-08-13T00:51:56.970Z,933.4
2018-08-13T00:52:59.902Z,933.4
2018-08-13T00:53:59.829Z,933.3
2018-08-13T00:54:59.748Z,932.8
2018-08-13T00:56:01.164Z,933.2
2018-08-13T00:57:01.295Z,932.8
2018-08-13T00:58:01.225Z,933.2
2018-08-13T00:59:01.164Z,933.2
2018-08-13T01:00:01.065Z,933.2
2018-08-13T01:01:00.997Z,933.2
2018-08-13T01:02:00.905Z,933.2
2018-08-13T01:03:00.857Z,933.2
2018-08-13T01:04:00.795Z,933.2
2018-08-13T01:05:01.717Z,933.1
2018-08-13T01:06:03.101Z,932.8
2018-08-13T01:07:03.014Z,933.2
2018-08-13T01:08:03.996Z,933.2
2018-08-13T01:09:03.918Z,933.1
2018-08-13T01:10:04.053Z,932.7
2018-08-13T01:11:03.967Z,932.7
2018-08-13T01:12:03.885Z,933.1
2018-08-13T01:13:03.814Z,933.2
2018-08-13T01:14:04.754Z,933.2
2018-08-13T01:15:04.679Z,933.2
2018-08-13T01:16:07.848Z,933.2
2018-08-13T01:17:08.747Z,933.2
2018-08-13T01:18:11.255Z,933.1
2018-08-13T01:19:11.165Z,933.1
2018-08-13T01:20:11.097Z,933.1
2018-08-13T01:21:11.001Z,932.7
2018-08-13T01:22:11.139Z,933.2
2018-08-13T01:23:11.041Z,933.2
2018-08-13T01:24:14.936Z,933.1
2018-08-13T01:25:14.876Z,933.1
2018-08-13T01:26:15.278Z,932.2
2018-08-13T01:27:15.192Z,933.1
2018-08-13T01:28:15.119Z,933.1
2018-08-13T01:29:15.037Z,932.6
2018-08-13T01:30:15.281Z,933.2
2018-08-13T01:31:15.197Z,933.1
2018-08-13T01:32:20.962Z,933
2018-08-13T01:33:20.874Z,933.1
2018-08-13T01:34:24.435Z,933
2018-08-13T01:35:24.372Z,933.1
2018-08-13T01:36:24.761Z,933.1
2018-08-13T01:37:24.677Z,933.1
2018-08-13T01:38:24.604Z,933.1
2018-08-13T01:39:24.532Z,933
2018-08-13T01:40:24.420Z,933.1
2018-08-13T01:41:24.363Z,933.1
2018-08-13T01:42:24.281Z,933.1
2018-08-13T01:43:24.251Z,932.5
2018-08-13T01:44:24.161Z,933
2018-08-13T01:45:24.060Z,932.6
2018-08-13T01:46:25.119Z,933
2018-08-13T01:47:25.016Z,933
2018-08-13T01:48:24.941Z,933
2018-08-13T01:49:24.853Z,932.9
2018-08-13T01:50:24.764Z,933
2018-08-13T01:51:24.717Z,932.6
2018-08-13T01:52:24.620Z,932.5
2018-08-13T01:53:24.569Z,933
2018-08-13T01:54:24.481Z,933
2018-08-13T01:55:24.413Z,932.9
2018-08-13T01:56:24.840Z,932.9
2018-08-13T01:57:24.759Z,932.5
2018-08-13T01:58:24.692Z,932.9
2018-08-13T01:59:24.615Z,933
2018-08-13T02:00:24.532Z,932.9
2018-08-13T02:01:24.961Z,932.9
2018-08-13T02:02:24.907Z,932.9
2018-08-13T02:03:24.837Z,933
2018-08-13T02:04:24.752Z,933
2018-08-13T02:05:24.663Z,932.9
2018-08-13T02:06:25.006Z,932.9
2018-08-13T02:07:24.928Z,932.5
2018-08-13T02:08:24.861Z,932.9
2018-08-13T02:09:24.815Z,932.9
2018-08-13T02:10:24.722Z,932.9
2018-08-13T02:11:24.631Z,932.9
2018-08-13T02:12:24.594Z,932.8
2018-08-13T02:13:24.504Z,932.8
2018-08-13T02:14:24.420Z,932.8
2018-08-13T02:15:24.370Z,932.3
2018-08-13T02:16:24.740Z,932.7
2018-08-13T02:17:24.710Z,932.7
2018-08-13T02:18:24.616Z,932.6
2018-08-13T02:19:24.562Z,932.6
2018-08-13T02:20:24.486Z,932.6
2018-08-13T02:21:24.453Z,932.6
2018-08-13T02:22:24.397Z,932.6
2018-08-13T02:23:24.536Z,932.5
2018-08-13T02:24:24.452Z,932.6
2018-08-13T02:25:24.397Z,932.6
2018-08-13T02:26:24.743Z,932.1
2018-08-13T02:27:24.715Z,932.5
2018-08-13T02:28:24.637Z,932.6
2018-08-13T02:29:24.528Z,932.5
2018-08-13T02:30:24.448Z,932.5
2018-08-13T02:31:24.384Z,932.5
2018-08-13T02:32:24.342Z,932.4
2018-08-13T02:33:24.246Z,932.5
2018-08-13T02:34:25.176Z,932.4
2018-08-13T02:35:25.085Z,932.4
2018-08-13T02:36:25.510Z,932.4
2018-08-13T02:37:25.474Z,932.4
2018-08-13T02:38:25.459Z,932.4
2018-08-13T02:39:25.423Z,932.3
2018-08-13T02:40:25.366Z,932
2018-08-13T02:41:25.290Z,932.3
2018-08-13T02:42:25.198Z,932.3
2018-08-13T02:43:25.135Z,932.4
2018-08-13T02:44:25.055Z,932.4
2018-08-13T02:45:25.037Z,931.7
2018-08-13T02:46:25.436Z,932.3
2018-08-13T02:47:25.346Z,932.4
2018-08-13T02:48:25.296Z,932.3
2018-08-13T02:49:25.220Z,932.1
2018-08-13T02:50:25.133Z,932.4
2018-08-13T02:51:25.060Z,932.4
2018-08-13T02:52:24.967Z,932.3
2018-08-13T02:53:24.907Z,932.4
2018-08-13T02:54:24.840Z,931.9
2018-08-13T02:55:24.763Z,932.4
2018-08-13T02:56:25.167Z,932.3
2018-08-13T02:57:25.092Z,932.3
2018-08-13T02:58:25.046Z,932.3
2018-08-13T02:59:24.960Z,932.3
2018-08-13T03:00:24.882Z,932
2018-08-13T03:01:24.816Z,932.4
2018-08-13T03:02:24.747Z,932.4
2018-08-13T03:03:24.687Z,932.2
2018-08-13T03:04:24.871Z,932.4
2018-08-13T03:05:24.809Z,932
2018-08-13T03:06:25.214Z,932.4
2018-08-13T03:07:25.115Z,932.4
2018-08-13T03:08:25.036Z,932
2018-08-13T03:09:24.979Z,932.4
2018-08-13T03:10:24.909Z,932.5
2018-08-13T03:11:24.814Z,932.5
2018-08-13T03:12:24.731Z,932.4
2018-08-13T03:13:24.645Z,932.4
2018-08-13T03:14:24.596Z,932.5
2018-08-13T03:15:24.536Z,932.5
2018-08-13T03:16:24.899Z,932.5
2018-08-13T03:17:24.834Z,932.5
2018-08-13T03:18:24.748Z,932.5
2018-08-13T03:19:24.673Z,932.5
2018-08-13T03:20:24.614Z,932.1
2018-08-13T03:21:24.554Z,932.5
2018-08-13T03:22:25.457Z,931.1
2018-08-13T03:23:25.376Z,932.5
2018-08-13T03:24:25.554Z,932.1
2018-08-13T03:25:25.529Z,932.5
2018-08-13T03:26:25.911Z,932.5
2018-08-13T03:27:25.832Z,932.6
2018-08-13T03:28:25.749Z,932.5
2018-08-13T03:29:25.732Z,932.5
2018-08-13T03:30:25.777Z,932.5
2018-08-13T03:31:25.710Z,932.1
2018-08-13T03:32:25.638Z,932.5
2018-08-13T03:33:25.859Z,932.5
2018-08-13T03:34:25.793Z,932.4
2018-08-13T03:35:25.706Z,932.4
2018-08-13T03:36:26.061Z,930.7
2018-08-13T03:37:25.967Z,930.8
2018-08-13T03:38:25.890Z,932.5
2018-08-13T03:39:25.807Z,932.5
2018-08-13T03:40:25.734Z,932.4
2018-08-13T03:41:25.659Z,932.4
2018-08-13T03:42:25.580Z,932
2018-08-13T03:43:25.495Z,930.7
2018-08-13T03:44:25.495Z,932
2018-08-13T03:45:25.421Z,932.4
2018-08-13T03:46:25.751Z,932.4
2018-08-13T03:47:25.676Z,932.4
2018-08-13T03:48:25.598Z,932.4
2018-08-13T03:49:25.512Z,931.9
2018-08-13T03:50:25.430Z,931.9
2018-08-13T03:51:25.345Z,932.3
2018-08-13T03:52:25.298Z,932.3
2018-08-13T03:53:25.234Z,932.4
2018-08-13T03:54:25.172Z,929.3
2018-08-13T03:55:25.112Z,932.4
2018-08-13T03:56:25.507Z,932.3
2018-08-13T03:57:25.413Z,932.4
2018-08-13T03:58:25.317Z,932.4
2018-08-13T03:59:25.226Z,932.3
2018-08-13T04:00:25.130Z,932.3
2018-08-13T04:01:25.058Z,932.3
2018-08-13T04:02:25.006Z,932.3
2018-08-13T04:03:24.921Z,932.4
2018-08-13T04:04:24.830Z,932.3
2018-08-13T04:05:24.736Z,932.3
2018-08-13T04:06:25.136Z,932
2018-08-13T04:07:25.059Z,932.3
2018-08-13T04:08:24.966Z,932.3
2018-08-13T04:09:24.905Z,932.3
2018-08-13T04:10:24.809Z,932.4
2018-08-13T04:11:24.715Z,932.3
2018-08-13T04:12:24.622Z,932.3
2018-08-13T04:13:24.558Z,931.8
2018-08-13T04:14:24.482Z,928.9
2018-08-13T04:15:24.409Z,932.3
2018-08-13T04:16:24.761Z,932.3
2018-08-13T04:17:24.660Z,932.3
2018-08-13T04:18:24.584Z,932.4
2018-08-13T04:19:24.486Z,932.4
2018-08-13T04:20:24.395Z,932.4
2018-08-13T04:21:24.335Z,932.4
2018-08-13T04:22:24.239Z,932.4
2018-08-13T04:23:24.391Z,932.4
2018-08-13T04:24:24.292Z,932.3
2018-08-13T04:25:24.212Z,932.4
2018-08-13T04:26:24.579Z,932.3
2018-08-13T04:27:24.506Z,932.3
2018-08-13T04:28:24.433Z,932.4
2018-08-13T04:29:24.579Z,932
2018-08-13T04:30:24.504Z,932.4
2018-08-13T04:31:24.435Z,932.4
2018-08-13T04:32:24.357Z,932.3
2018-08-13T04:33:24.342Z,932.3
2018-08-13T04:34:29.505Z,932.4
2018-08-13T04:35:29.429Z,931.9
2018-08-13T04:36:29.846Z,931.8
2018-08-13T04:37:29.751Z,932.3
2018-08-13T04:38:29.813Z,932.3
2018-08-13T04:39:29.722Z,932.4
2018-08-13T04:40:29.632Z,932.3
2018-08-13T04:41:29.535Z,932.2
2018-08-13T04:42:29.450Z,932.3
2018-08-13T04:43:29.387Z,931.8
2018-08-13T04:44:29.302Z,932.2
2018-08-13T04:45:29.222Z,932.2
2018-08-13T04:46:29.571Z,932.2
2018-08-13T04:47:29.528Z,932.2
2018-08-13T04:48:29.455Z,932.2
2018-08-13T04:49:29.403Z,932.3
2018-08-13T04:50:29.315Z,931.8
2018-08-13T04:51:29.212Z,932.3
2018-08-13T04:52:29.132Z,931.8
2018-08-13T04:53:29.033Z,931.8
2018-08-13T04:54:28.962Z,931
2018-08-13T04:55:28.864Z,932.3
2018-08-13T04:56:29.761Z,932.2
2018-08-13T04:57:29.681Z,931.7
2018-08-13T04:58:29.580Z,931.8
2018-08-13T04:59:29.525Z,932.2
2018-08-13T05:00:29.652Z,932.3
2018-08-13T05:01:29.573Z,932.3
2018-08-13T05:02:29.475Z,932.2
2018-08-13T05:03:29.395Z,932.2
2018-08-13T05:04:29.313Z,931.7
2018-08-13T05:05:29.220Z,931.6
2018-08-13T05:06:29.574Z,932.1
2018-08-13T05:07:30.493Z,931.6
2018-08-13T05:08:30.441Z,932.1
2018-08-13T05:09:32.071Z,932
2018-08-13T05:10:35.064Z,932.1
2018-08-13T05:11:35.994Z,931.9
2018-08-13T05:12:36.901Z,932
2018-08-13T05:13:36.824Z,932
2018-08-13T05:14:37.672Z,931.6
2018-08-13T05:15:38.577Z,932
2018-08-13T05:16:38.952Z,932
2018-08-13T05:17:39.090Z,932
2018-08-13T05:18:39.007Z,932
2018-08-13T05:19:39.955Z,932
2018-08-13T05:20:39.869Z,931.5
2018-08-13T05:21:39.782Z,931.6
2018-08-13T05:22:39.926Z,932
2018-08-13T05:23:39.839Z,932
2018-08-13T05:24:39.800Z,931.6
2018-08-13T05:25:39.706Z,932
2018-08-13T05:26:43.232Z,932
2018-08-13T05:27:43.274Z,932
2018-08-13T05:28:44.175Z,932
2018-08-13T05:29:44.111Z,932.2
2018-08-13T05:30:45.042Z,932
2018-08-13T05:31:44.968Z,931.6
2018-08-13T05:32:44.877Z,932
2018-08-13T05:33:45.457Z,932
2018-08-13T05:34:48.417Z,932
2018-08-13T05:35:51.457Z,931.7
2018-08-13T05:36:51.830Z,932
2018-08-13T05:37:57.340Z,932
2018-08-13T05:38:57.248Z,932
2018-08-13T05:39:59.888Z,931.6
2018-08-13T05:40:59.839Z,932.1
2018-08-13T05:41:59.753Z,932
2018-08-13T05:43:02.658Z,931.6
2018-08-13T05:44:02.918Z,932
2018-08-13T05:45:02.863Z,931.9
2018-08-13T05:46:02.849Z,932
2018-08-13T05:47:03.213Z,932
2018-08-13T05:48:03.350Z,932.1
2018-08-13T05:49:03.266Z,932.1
2018-08-13T05:50:07.184Z,932.2
2018-08-13T05:51:08.191Z,932.1
2018-08-13T05:52:08.101Z,932.1
2018-08-13T05:53:08.026Z,932.2
2018-08-13T05:54:08.050Z,932.1
2018-08-13T05:55:08.208Z,932.1
2018-08-13T05:56:08.129Z,932
2018-08-13T05:57:08.573Z,932.1
2018-08-13T05:58:11.353Z,932.1
2018-08-13T05:59:11.288Z,932.1
2018-08-13T06:00:11.278Z,931.6
2018-08-13T06:01:20.305Z,929.5
2018-08-13T06:02:20.222Z,932
2018-08-13T06:03:25.931Z,932
2018-08-13T06:04:25.849Z,931.6
2018-08-13T06:05:26.014Z,932
2018-08-13T06:06:26.633Z,932
2018-08-13T06:07:33.849Z,931.6
2018-08-13T06:08:33.761Z,931.6
2018-08-13T06:09:33.700Z,932
2018-08-13T06:10:36.383Z,932
2018-08-13T06:11:36.830Z,932
2018-08-13T06:12:36.977Z,932
2018-08-13T06:13:36.889Z,932
2018-08-13T06:14:37.126Z,932.1
2018-08-13T06:15:37.081Z,931.6
2018-08-13T06:16:37.563Z,932.1
2018-08-13T06:17:46.888Z,932.1
2018-08-13T06:18:46.801Z,932.1
2018-08-13T06:19:49.543Z,932
2018-08-13T06:20:49.470Z,932
2018-08-13T06:21:53.407Z,931.6
2018-08-13T06:22:53.318Z,929
2018-08-13T06:23:53.450Z,932
2018-08-13T06:24:53.369Z,932
2018-08-13T06:25:53.337Z,932
2018-08-13T06:26:53.240Z,931.7
2018-08-13T06:27:53.585Z,932.1
2018-08-13T06:28:53.754Z,931.7
2018-08-13T06:29:53.664Z,931.7
2018-08-13T06:30:53.580Z,932
2018-08-13T06:31:54.152Z,932
2018-08-13T06:32:54.045Z,932
2018-08-13T06:33:54.407Z,932.1
2018-08-13T06:34:54.420Z,931.6
2018-08-13T06:35:54.421Z,931.6
2018-08-13T06:36:54.747Z,932.1
2018-08-13T06:37:55.593Z,932
2018-08-13T06:38:56.184Z,931.7
2018-08-13T06:39:56.108Z,932.1
2018-08-13T06:40:56.010Z,932.1
2018-08-13T06:41:55.994Z,931.7
2018-08-13T06:42:55.905Z,931.7
2018-08-13T06:43:57.061Z,932.2
2018-08-13T06:44:57.201Z,932.2
2018-08-13T06:46:00.065Z,932.2
2018-08-13T06:47:01.330Z,932.2
2018-08-13T06:48:02.045Z,932.2
2018-08-13T06:49:05.015Z,932.2
2018-08-13T06:50:04.925Z,932.2
2018-08-13T06:51:08.393Z,932.2
2018-08-13T06:52:08.327Z,932.3
2018-08-13T06:53:10.986Z,932.3
2018-08-13T06:54:10.917Z,932.3
2018-08-13T06:55:19.825Z,932.3
2018-08-13T06:56:19.742Z,932.3
2018-08-13T06:57:19.678Z,932.3
2018-08-13T06:58:20.222Z,932.2
2018-08-13T06:59:20.351Z,932.2
2018-08-13T07:00:20.259Z,932.2
2018-08-13T07:01:29.480Z,932.2
2018-08-13T07:02:29.399Z,932.2
2018-08-13T07:03:32.856Z,932.3
2018-08-13T07:04:32.769Z,932.3
2018-08-13T07:05:32.672Z,932.2
2018-08-13T07:06:32.591Z,932.2
2018-08-13T07:07:32.509Z,932.2
2018-08-13T07:08:34.220Z,932.2
2018-08-13T07:09:35.147Z,932.2
2018-08-13T07:10:35.064Z,932.2
2018-08-13T07:11:34.975Z,932.2
2018-08-13T07:12:34.888Z,932.2
2018-08-13T07:13:34.792Z,932.2
2018-08-13T07:14:34.707Z,932.2
2018-08-13T07:15:41.585Z,932.2
2018-08-13T07:16:41.512Z,931.9
2018-08-13T07:17:41.443Z,932.2
2018-08-13T07:18:42.011Z,932.2
2018-08-13T07:19:41.916Z,932.2
2018-08-13T07:20:41.855Z,931.8
2018-08-13T07:21:41.988Z,932.2
2018-08-13T07:22:41.907Z,932.1
2018-08-13T07:23:41.823Z,932.1
2018-08-13T07:24:41.776Z,931.1
2018-08-13T07:25:41.674Z,932.1
2018-08-13T07:26:41.568Z,931.7
2018-08-13T07:27:41.929Z,932.2
2018-08-13T07:28:45.827Z,932.1
2018-08-13T07:29:45.732Z,932.1
2018-08-13T07:30:45.885Z,932.1
2018-08-13T07:31:45.832Z,932.1
2018-08-13T07:32:45.753Z,932.2
2018-08-13T07:33:46.370Z,932.2
2018-08-13T07:34:46.352Z,932.2
2018-08-13T07:35:46.474Z,932.1
2018-08-13T07:36:49.355Z,932.1
2018-08-13T07:37:49.278Z,932.1
2018-08-13T07:38:49.715Z,932
2018-08-13T07:39:49.674Z,932.1
2018-08-13T07:40:49.801Z,932.1
2018-08-13T07:41:49.719Z,932
2018-08-13T07:42:49.625Z,932.1
2018-08-13T07:43:49.598Z,932.1
2018-08-13T07:44:49.521Z,932.1
2018-08-13T07:45:49.517Z,932.2
2018-08-13T07:46:49.439Z,932.1
2018-08-13T07:47:49.440Z,932.2
2018-08-13T07:48:49.774Z,932.2
2018-08-13T07:49:51.136Z,932.1
2018-08-13T07:50:51.146Z,932.1
2018-08-13T07:51:51.889Z,932.1
2018-08-13T07:52:51.933Z,932.2
2018-08-13T07:53:54.669Z,932.2
2018-08-13T07:54:54.593Z,932.1
2018-08-13T07:55:54.501Z,932.2
2018-08-13T07:56:54.647Z,932.2
2018-08-13T07:57:54.630Z,932.2
2018-08-13T07:58:55.057Z,932.2
2018-08-13T07:59:55.197Z,932.2
2018-08-13T08:00:55.165Z,932.2
2018-08-13T08:01:55.077Z,932.3
2018-08-13T08:02:55.073Z,932.3
2018-08-13T08:03:54.972Z,932.3
2018-08-13T08:04:54.906Z,932.2
2018-08-13T08:05:54.825Z,932.3
2018-08-13T08:06:54.815Z,932.3
2018-08-13T08:07:54.712Z,932.3
2018-08-13T08:08:55.082Z,932.2
2018-08-13T08:09:54.980Z,931.9
2018-08-13T08:10:54.919Z,932.3
2018-08-13T08:11:54.825Z,932.3
2018-08-13T08:12:55.395Z,932.4
2018-08-13T08:13:55.361Z,932.4
2018-08-13T08:14:55.273Z,932.4
2018-08-13T08:15:55.196Z,932.3
2018-08-13T08:16:55.108Z,932.3
2018-08-13T08:17:55.088Z,932.5
2018-08-13T08:18:55.453Z,932
2018-08-13T08:19:55.364Z,932.4
2018-08-13T08:20:55.362Z,932
2018-08-13T08:21:55.289Z,932.5
2018-08-13T08:22:55.201Z,932.4
2018-08-13T08:23:55.114Z,932.4
2018-08-13T08:24:56.028Z,932.4
2018-08-13T08:25:55.961Z,932.4
2018-08-13T08:26:55.857Z,932.4
2018-08-13T08:27:55.754Z,932.4
2018-08-13T08:28:56.124Z,932.4
2018-08-13T08:29:56.096Z,932.5
2018-08-13T08:30:56.910Z,932.4
2018-08-13T08:31:56.823Z,932.4
2018-08-13T08:32:56.787Z,932.3
2018-08-13T08:33:56.692Z,929.5
2018-08-13T08:34:56.619Z,932.4
2018-08-13T08:35:56.566Z,932.4
2018-08-13T08:36:56.473Z,932.5
2018-08-13T08:37:56.393Z,932.4
2018-08-13T08:38:57.976Z,932.5
2018-08-13T08:39:57.897Z,932.5
2018-08-13T08:41:02.135Z,932.5
2018-08-13T08:42:02.042Z,932.5
2018-08-13T08:43:01.962Z,932.4
2018-08-13T08:44:04.802Z,932.6
2018-08-13T08:45:04.714Z,932.6
2018-08-13T08:46:05.695Z,931.7
2018-08-13T08:47:05.710Z,932.6
2018-08-13T08:48:06.611Z,932.3
2018-08-13T08:49:06.994Z,932.7
2018-08-13T08:50:06.921Z,932.7
2018-08-13T08:51:06.846Z,932.7
2018-08-13T08:52:06.755Z,929.7
2018-08-13T08:53:06.890Z,932.7
2018-08-13T08:54:06.799Z,932.7
2018-08-13T08:55:06.702Z,932.6
2018-08-13T08:56:06.629Z,932.7
2018-08-13T08:57:06.775Z,932.2
2018-08-13T08:58:06.682Z,932.2
2018-08-13T08:59:07.044Z,932.6
2018-08-13T09:00:06.960Z,932.6
2018-08-13T09:01:06.875Z,932.6
2018-08-13T09:02:06.797Z,932.5
2018-08-13T09:03:07.415Z,932.5
2018-08-13T09:04:07.306Z,932.5
2018-08-13T09:05:07.210Z,932.6
2018-08-13T09:06:07.132Z,932.5
2018-08-13T09:07:07.266Z,932.1
2018-08-13T09:08:07.198Z,932.5
2018-08-13T09:09:07.553Z,932.5
2018-08-13T09:10:07.707Z,932.4
2018-08-13T09:11:07.641Z,932.5
2018-08-13T09:12:07.560Z,932.5
2018-08-13T09:13:07.712Z,932.5
2018-08-13T09:14:07.891Z,932.5
2018-08-13T09:15:07.823Z,932.1
2018-08-13T09:16:10.620Z,932.5
2018-08-13T09:17:10.514Z,932.5
2018-08-13T09:18:10.442Z,932.4
2018-08-13T09:19:11.554Z,932.4
2018-08-13T09:20:11.540Z,932
2018-08-13T09:21:11.447Z,932
2018-08-13T09:22:11.359Z,932.4
2018-08-13T09:23:11.305Z,932.4
2018-08-13T09:24:11.211Z,932.3
2018-08-13T09:25:11.421Z,932.4
2018-08-13T09:26:11.339Z,932.4
2018-08-13T09:27:11.260Z,932.5
2018-08-13T09:28:11.171Z,932.4
2018-08-13T09:29:11.541Z,932.4
2018-08-13T09:30:11.451Z,932.4
2018-08-13T09:31:11.356Z,932.5
2018-08-13T09:32:11.255Z,932.4
2018-08-13T09:33:11.163Z,932.5
2018-08-13T09:34:11.104Z,932.4
2018-08-13T09:35:11.023Z,932.4
2018-08-13T09:36:10.952Z,930.8
2018-08-13T09:37:10.842Z,932
2018-08-13T09:38:10.764Z,931.5
2018-08-13T09:39:11.134Z,932.4
2018-08-13T09:40:11.282Z,932.4
2018-08-13T09:41:11.217Z,932.4
2018-08-13T09:42:11.127Z,932.5
2018-08-13T09:43:11.032Z,932.4
2018-08-13T09:44:10.933Z,932.4
2018-08-13T09:45:10.955Z,932.3
2018-08-13T09:46:10.878Z,932.4
2018-08-13T09:47:10.794Z,932.3
2018-08-13T09:48:11.283Z,932.3
2018-08-13T09:49:11.835Z,932.3
2018-08-13T09:50:11.828Z,932.3
2018-08-13T09:51:11.738Z,932.3
2018-08-13T09:52:14.642Z,931.8
2018-08-13T09:53:14.553Z,930.5
2018-08-13T09:54:14.456Z,932.2
2018-08-13T09:55:14.408Z,932.2
2018-08-13T09:56:14.326Z,932.3
2018-08-13T09:57:14.239Z,932.3
2018-08-13T09:58:14.176Z,932.3
2018-08-13T09:59:14.603Z,931.5
2018-08-13T10:00:15.048Z,932.3
2018-08-13T10:01:15.038Z,932.3
2018-08-13T10:02:14.950Z,932.3
2018-08-13T10:03:14.866Z,932.3
2018-08-13T10:04:14.772Z,932.3
2018-08-13T10:05:14.685Z,932.4
2018-08-13T10:06:14.839Z,931.9
2018-08-13T10:07:14.780Z,932.3
2018-08-13T10:08:14.691Z,932.3
2018-08-13T10:09:15.223Z,931.6
2018-08-13T10:10:15.142Z,932.2
2018-08-13T10:11:15.074Z,931.9
2018-08-13T10:12:14.998Z,932.3
2018-08-13T10:13:14.911Z,932.3
2018-08-13T10:14:14.835Z,932.3
2018-08-13T10:15:14.741Z,932.3
2018-08-13T10:16:14.684Z,932.2
2018-08-13T10:17:15.054Z,932.2
2018-08-13T10:18:14.964Z,932.2
2018-08-13T10:19:15.550Z,932.2
2018-08-13T10:20:15.459Z,932.2
2018-08-13T10:21:15.380Z,932.3
2018-08-13T10:22:15.311Z,932.2
2018-08-13T10:23:15.226Z,932.2
2018-08-13T10:24:15.157Z,931.8
2018-08-13T10:25:15.309Z,932.2
2018-08-13T10:26:15.232Z,932.2
2018-08-13T10:27:15.166Z,932.2
2018-08-13T10:28:15.074Z,932.2
2018-08-13T10:29:15.472Z,932.2
2018-08-13T10:30:15.386Z,932.3
2018-08-13T10:31:15.306Z,932.2
2018-08-13T10:32:15.266Z,932.2
2018-08-13T10:33:15.203Z,932.2
2018-08-13T10:34:15.121Z,932.2
2018-08-13T10:35:15.042Z,931.9
2018-08-13T10:36:14.949Z,931.9
2018-08-13T10:37:14.886Z,932.2
2018-08-13T10:38:14.804Z,932.1
2018-08-13T10:39:15.159Z,932.1
2018-08-13T10:40:15.070Z,931.8
2018-08-13T10:41:14.967Z,932.1
2018-08-13T10:42:17.565Z,932.2
2018-08-13T10:43:17.499Z,932.1
2018-08-13T10:44:17.423Z,932.1
2018-08-13T10:45:18.348Z,932.1
2018-08-13T10:46:18.246Z,932.1
2018-08-13T10:47:18.207Z,932.1
2018-08-13T10:48:18.138Z,932.1
2018-08-13T10:49:18.524Z,932
2018-08-13T10:50:18.434Z,929.1
2018-08-13T10:51:20.703Z,932.1
2018-08-13T10:52:20.658Z,932
2018-08-13T10:53:20.576Z,932
2018-08-13T10:54:20.487Z,931.9
2018-08-13T10:55:20.412Z,931.6
2018-08-13T10:56:20.325Z,931.9
2018-08-13T10:57:20.247Z,932
2018-08-13T10:58:20.178Z,932.1
2018-08-13T10:59:20.532Z,931.6
2018-08-13T11:00:20.446Z,931.6
2018-08-13T11:01:20.364Z,932
2018-08-13T11:02:20.283Z,932
2018-08-13T11:03:20.195Z,932
2018-08-13T11:04:20.182Z,932
2018-08-13T11:05:20.132Z,932
2018-08-13T11:06:20.033Z,932
2018-08-13T11:07:19.938Z,932
2018-08-13T11:08:19.860Z,932
2018-08-13T11:09:20.206Z,931.7
2018-08-13T11:10:20.528Z,932
2018-08-13T11:11:20.477Z,932
2018-08-13T11:12:20.403Z,932
2018-08-13T11:13:20.538Z,932
2018-08-13T11:14:20.463Z,931.9
2018-08-13T11:15:20.397Z,931.9
2018-08-13T11:16:20.341Z,931.6
2018-08-13T11:17:20.266Z,929.1
2018-08-13T11:18:22.780Z,932
2018-08-13T11:19:23.171Z,931.9
2018-08-13T11:20:23.160Z,931.9
2018-08-13T11:21:23.103Z,931.9
2018-08-13T11:22:23.010Z,931.9
2018-08-13T11:23:22.937Z,931.9
2018-08-13T11:24:22.872Z,931.9
2018-08-13T11:25:23.208Z,931.4
2018-08-13T11:26:23.184Z,931.3
2018-08-13T11:27:23.112Z,931.6
2018-08-13T11:28:23.025Z,931.8
2018-08-13T11:29:23.391Z,931.7
2018-08-13T11:30:23.334Z,931.8
2018-08-13T11:31:23.486Z,931.7
2018-08-13T11:32:23.385Z,931.8
2018-08-13T11:33:23.296Z,931.7
2018-08-13T11:34:23.198Z,931.8
2018-08-13T11:35:27.061Z,931.8
2018-08-13T11:36:26.983Z,931.7
2018-08-13T11:37:26.903Z,931.7
2018-08-13T11:38:26.842Z,931.3
2018-08-13T11:39:27.229Z,931.7
2018-08-13T11:40:27.137Z,931.7
2018-08-13T11:41:27.059Z,931.7
2018-08-13T11:42:26.958Z,931.7
2018-08-13T11:43:27.888Z,931.7
2018-08-13T11:44:27.818Z,931.5
2018-08-13T11:45:27.731Z,931.3
2018-08-13T11:46:28.389Z,931.7
2018-08-13T11:47:31.317Z,931.7
2018-08-13T11:48:31.228Z,931.7
2018-08-13T11:49:31.583Z,931.7
2018-08-13T11:50:31.520Z,931.6
2018-08-13T11:51:31.455Z,931.3
2018-08-13T11:52:31.781Z,931.6
2018-08-13T11:53:31.728Z,931.6
2018-08-13T11:54:31.645Z,931.7
2018-08-13T11:55:31.549Z,931.6
2018-08-13T11:56:32.391Z,931.1
2018-08-13T11:57:32.409Z,931.1
2018-08-13T11:58:32.343Z,931.5
2018-08-13T11:59:35.454Z,931.5
2018-08-13T12:00:35.387Z,931.5
2018-08-13T12:01:35.324Z,931.5
2018-08-13T12:02:35.224Z,931.6
2018-08-13T12:03:35.132Z,931.6
2018-08-13T12:04:35.052Z,931.6
2018-08-13T12:05:35.965Z,931.6
2018-08-13T12:06:35.880Z,931.5
2018-08-13T12:07:35.794Z,931.5
2018-08-13T12:08:35.862Z,931
2018-08-13T12:09:36.234Z,931.5
2018-08-13T12:10:36.145Z,931.5
2018-08-13T12:11:36.080Z,931.5
2018-08-13T12:12:36.024Z,931.4
2018-08-13T12:13:35.943Z,931.4
2018-08-13T12:14:35.935Z,931.4
2018-08-13T12:15:35.838Z,931.4
2018-08-13T12:16:35.743Z,931.5
2018-08-13T12:17:35.645Z,931.4
2018-08-13T12:18:35.584Z,931.4
2018-08-13T12:19:36.679Z,931.4
2018-08-13T12:20:36.652Z,931.1
2018-08-13T12:21:36.578Z,931.5
2018-08-13T12:22:36.771Z,931.4
2018-08-13T12:23:36.723Z,931.4
2018-08-13T12:24:36.880Z,931.4
2018-08-13T12:25:36.806Z,930.9
2018-08-13T12:26:36.717Z,930.9
2018-08-13T12:27:39.302Z,931.3
2018-08-13T12:28:39.229Z,931.3
2018-08-13T12:29:39.609Z,928.4
2018-08-13T12:30:39.502Z,930.9
2018-08-13T12:31:39.430Z,931.2
2018-08-13T12:32:39.361Z,931.1
2018-08-13T12:33:39.298Z,931.1
2018-08-13T12:34:39.211Z,930.8
2018-08-13T12:35:39.114Z,930.6
2018-08-13T12:36:39.289Z,931.1
2018-08-13T12:37:39.198Z,931.1
2018-08-13T12:38:39.134Z,931.1
2018-08-13T12:39:39.716Z,931
2018-08-13T12:40:39.633Z,931
2018-08-13T12:41:39.554Z,931.1
2018-08-13T12:42:39.715Z,931
2018-08-13T12:43:39.648Z,931
2018-08-13T12:44:39.570Z,931
2018-08-13T12:45:40.157Z,931
2018-08-13T12:46:40.061Z,931.1
2018-08-13T12:47:39.963Z,931
2018-08-13T12:48:40.320Z,931
2018-08-13T12:49:40.747Z,931.1
2018-08-13T12:50:40.668Z,930.6
2018-08-13T12:51:40.814Z,931
2018-08-13T12:52:40.793Z,930.8
2018-08-13T12:53:40.715Z,931
2018-08-13T12:54:40.647Z,931
2018-08-13T12:55:40.554Z,931
2018-08-13T12:56:41.151Z,930.9
2018-08-13T12:57:41.073Z,931
2018-08-13T12:58:41.005Z,931
2018-08-13T12:59:41.419Z,931
2018-08-13T13:00:41.348Z,930.6
2018-08-13T13:01:41.264Z,930.7
2018-08-13T13:02:41.193Z,931.1
2018-08-13T13:03:41.103Z,931.1